Time;durP1;ratioP1;P1;durP2;ratioP2;P2;SDS_P1;SDS_P2;PMS_P1;PMS_P2;Temp;Humidity;BMP_temperature;BMP_pressure;BME280_temperature;BME280_humidity;BME280_pressure;Samples;Min_cycle;Max_cycle;Signal;HPM_P1;HPM_P2
2022/03/09 00:01:27;;;;;;;11.20;5.22;;;5.20;95.50;;;;;;5031994;28;20060;-39
2022/03/09 00:03:53;;;;;;;11.73;5.75;;;5.20;95.60;;;;;;5027966;28;20041;-39
2022/03/09 00:06:18;;;;;;;11.13;6.00;;;5.20;95.40;;;;;;5023606;28;20041;-38
2022/03/09 00:08:44;;;;;;;10.05;5.10;;;5.30;95.40;;;;;;5032226;28;20063;-40
2022/03/09 00:11:09;;;;;;;8.77;5.30;;;5.20;95.60;;;;;;5032867;28;20025;-41
2022/03/09 00:13:35;;;;;;;8.90;4.65;;;5.10;95.70;;;;;;5020802;28;20410;-40
2022/03/09 00:16:00;;;;;;;8.35;4.90;;;5.00;95.70;;;;;;5033304;28;20044;-39
2022/03/09 00:18:26;;;;;;;10.27;5.07;;;5.00;95.90;;;;;;5033462;28;20021;-38
2022/03/09 00:20:52;;;;;;;12.95;4.78;;;5.00;95.90;;;;;;5029163;28;20018;-40
2022/03/09 00:23:18;;;;;;;12.57;5.95;;;4.90;95.80;;;;;;5025222;28;20478;-40
2022/03/09 00:25:43;;;;;;;9.43;5.07;;;4.90;95.90;;;;;;5032472;28;20105;-39
2022/03/09 00:28:09;;;;;;;8.80;4.75;;;4.90;95.90;;;;;;5030616;28;20116;-41
2022/03/09 00:30:35;;;;;;;7.95;4.28;;;4.90;95.90;;;;;;5022576;28;20025;-46
2022/03/09 00:33:00;;;;;;;8.32;3.92;;;4.90;96.20;;;;;;5033385;28;20025;-41
2022/03/09 00:35:26;;;;;;;9.63;4.82;;;4.80;96.00;;;;;;5032014;28;20064;-40
2022/03/09 00:37:52;;;;;;;12.48;4.50;;;4.80;96.00;;;;;;5022395;28;20033;-39
2022/03/09 00:40:18;;;;;;;7.32;4.55;;;4.80;96.10;;;;;;5028323;28;20080;-42
2022/03/09 00:42:44;;;;;;;12.25;4.70;;;4.70;96.30;;;;;;5022293;28;20033;-41
2022/03/09 00:45:10;;;;;;;11.65;4.65;;;4.60;96.40;;;;;;5023873;28;20022;-41
2022/03/09 00:47:36;;;;;;;15.40;4.80;;;4.60;96.30;;;;;;5021345;28;20068;-41
2022/03/09 00:50:02;;;;;;;8.65;4.82;;;4.60;96.40;;;;;;5028110;28;20076;-40
2022/03/09 00:52:28;;;;;;;7.35;4.00;;;4.60;96.40;;;;;;5017169;28;20045;-40
2022/03/09 00:54:53;;;;;;;9.20;4.50;;;4.60;96.50;;;;;;5031078;28;20029;-40
2022/03/09 00:57:19;;;;;;;14.95;5.13;;;4.60;96.30;;;;;;5015825;28;20055;-39
2022/03/09 00:59:44;;;;;;;14.82;6.13;;;4.60;96.40;;;;;;5019534;28;20048;-41
2022/03/09 01:02:10;;;;;;;13.18;5.25;;;4.60;96.50;;;;;;5031285;28;20036;-40
2022/03/09 01:04:36;;;;;;;8.45;5.30;;;4.50;96.60;;;;;;5030684;28;20026;-38
2022/03/09 01:07:03;;;;;;;15.18;4.97;;;4.40;96.60;;;;;;5032528;28;20036;-40
2022/03/09 01:09:29;;;;;;;10.70;4.95;;;4.40;96.80;;;;;;5023792;28;20544;-40
2022/03/09 01:11:55;;;;;;;8.27;4.80;;;4.30;96.90;;;;;;5017819;28;20034;-39
2022/03/09 01:14:20;;;;;;;9.90;5.45;;;4.30;96.90;;;;;;5030019;28;20095;-58
2022/03/09 01:16:46;;;;;;;7.90;4.28;;;4.30;97.20;;;;;;5032680;28;20036;-40
2022/03/09 01:19:11;;;;;;;13.65;5.53;;;4.30;96.90;;;;;;5031965;28;20029;-44
2022/03/09 01:21:37;;;;;;;10.00;4.78;;;4.30;96.90;;;;;;5030926;28;20052;-41
2022/03/09 01:24:03;;;;;;;9.15;5.20;;;4.30;97.00;;;;;;5018957;28;20390;-40
2022/03/09 01:26:29;;;;;;;9.73;5.03;;;4.30;96.90;;;;;;5016494;28;20022;-40
2022/03/09 01:29:13;;;;;;;8.48;4.47;;;4.40;96.90;;;;;;5020158;28;20025;-40
2022/03/09 01:31:39;;;;;;;8.60;5.05;;;4.40;96.80;;;;;;5020752;28;20037;-39
2022/03/09 01:34:05;;;;;;;7.75;4.45;;;4.30;96.80;;;;;;5026107;28;20038;-39
2022/03/09 01:36:30;;;;;;;11.85;5.13;;;4.30;96.80;;;;;;5026184;28;20033;-39
2022/03/09 01:38:56;;;;;;;10.65;4.60;;;4.30;96.90;;;;;;5029742;28;20390;-40
2022/03/09 01:41:22;;;;;;;8.38;4.45;;;4.30;96.90;;;;;;5030493;28;20022;-39
2022/03/09 01:44:08;;;;;;;9.40;4.43;;;4.30;96.60;;;;;;5014484;28;20461;-38
2022/03/09 01:46:34;;;;;;;19.50;6.47;;;4.30;96.70;;;;;;5015183;28;20045;-39
2022/03/09 01:49:00;;;;;;;7.88;4.95;;;4.30;96.80;;;;;;5031469;28;20103;-39
2022/03/09 01:51:26;;;;;;;10.73;4.70;;;4.30;96.80;;;;;;5031849;28;20025;-40
2022/03/09 01:53:52;;;;;;;11.75;4.82;;;4.20;97.20;;;;;;5026525;28;20025;-39
2022/03/09 01:56:18;;;;;;;7.75;4.30;;;4.20;97.10;;;;;;5018719;28;20030;-39
2022/03/09 01:58:44;;;;;;;11.88;4.60;;;4.20;97.00;;;;;;5012609;28;20034;-40
2022/03/09 02:01:09;;;;;;;10.52;5.43;;;4.20;96.90;;;;;;5026068;28;20041;-40
2022/03/09 02:03:35;;;;;;;7.57;4.60;;;4.10;97.10;;;;;;5018259;28;20053;-40
2022/03/09 02:06:01;;;;;;;9.38;4.80;;;4.10;97.40;;;;;;5012550;28;20034;-40
2022/03/09 02:11:11;;;;;;;9.05;5.00;;;3.90;97.50;;;;;;5028905;28;20080;-41
2022/03/09 02:13:38;;;;;;;9.20;5.10;;;3.90;97.50;;;;;;5014861;28;20057;-40
2022/03/09 02:16:04;;;;;;;11.07;5.25;;;3.90;97.30;;;;;;5027981;28;20037;-60
2022/03/09 02:18:30;;;;;;;6.30;4.35;;;4.00;97.30;;;;;;5028472;28;20041;-40
2022/03/09 02:21:01;;;;;;;7.70;4.90;;;4.00;97.40;;;;;;5012518;28;20022;-40
2022/03/09 02:23:26;;;;;;;12.85;5.43;;;4.00;97.30;;;;;;5022739;28;20033;-39
2022/03/09 02:25:52;;;;;;;8.38;4.88;;;4.00;97.40;;;;;;5021677;28;20473;-40
2022/03/09 02:28:18;;;;;;;9.32;4.90;;;4.00;97.20;;;;;;5014585;28;20030;-39
2022/03/09 02:30:43;;;;;;;9.63;4.70;;;4.00;97.20;;;;;;5022609;28;20022;-39
2022/03/09 02:33:09;;;;;;;10.48;5.15;;;4.00;97.30;;;;;;5019322;28;20018;-39
2022/03/09 02:35:35;;;;;;;12.18;4.75;;;3.90;97.60;;;;;;5028999;28;20033;-39
2022/03/09 02:38:00;;;;;;;9.05;4.93;;;4.00;97.40;;;;;;5035925;28;20025;-39
2022/03/09 02:40:26;;;;;;;14.60;5.50;;;4.00;97.40;;;;;;5017603;28;20084;-39
2022/03/09 02:42:52;;;;;;;7.55;4.25;;;4.00;97.40;;;;;;5028657;28;20017;-40
2022/03/09 02:45:18;;;;;;;7.38;4.38;;;4.00;97.40;;;;;;5024191;28;20034;-40
2022/03/09 02:47:44;;;;;;;9.80;4.57;;;3.90;97.60;;;;;;5016977;28;20029;-39
2022/03/09 02:50:14;;;;;;;10.73;4.93;;;3.90;97.40;;;;;;5015544;28;20041;-39
2022/03/09 02:52:40;;;;;;;11.25;4.38;;;4.00;97.30;;;;;;5015847;28;20026;-40
2022/03/09 02:55:07;;;;;;;9.93;5.05;;;3.90;97.40;;;;;;5025239;28;20057;-37
2022/03/09 02:57:33;;;;;;;10.52;5.05;;;3.90;97.40;;;;;;5035081;28;20422;-39
2022/03/09 02:59:59;;;;;;;9.68;5.07;;;3.90;97.60;;;;;;5033915;28;20028;-40
2022/03/09 03:02:24;;;;;;;10.77;4.57;;;3.80;97.70;;;;;;5026523;28;20033;-41
2022/03/09 03:04:50;;;;;;;14.15;5.32;;;3.80;97.80;;;;;;5024271;28;20137;-40
2022/03/09 03:07:15;;;;;;;9.32;5.00;;;3.70;97.80;;;;;;5023451;28;20390;-48
2022/03/09 03:09:41;;;;;;;12.18;5.00;;;3.70;97.90;;;;;;5015091;28;20041;-41
2022/03/09 03:12:07;;;;;;;11.30;4.97;;;3.60;98.10;;;;;;5014159;28;20224;-41
2022/03/09 03:14:32;;;;;;;9.63;4.40;;;3.60;98.00;;;;;;5017727;28;20026;-39
2022/03/09 03:16:58;;;;;;;9.68;4.80;;;3.60;98.20;;;;;;5016233;28;20037;-40
2022/03/09 03:19:23;;;;;;;7.65;4.57;;;3.50;98.40;;;;;;5025963;28;20417;-40
2022/03/09 03:21:49;;;;;;;11.35;4.78;;;3.50;98.30;;;;;;5033437;28;20422;-37
2022/03/09 03:24:15;;;;;;;10.80;5.00;;;3.60;98.20;;;;;;5027726;28;20029;-40
2022/03/09 03:26:40;;;;;;;12.40;5.93;;;3.60;98.10;;;;;;5019853;28;20026;-41
2022/03/09 03:29:06;;;;;;;7.45;4.57;;;3.50;98.20;;;;;;5022518;28;20049;-39
2022/03/09 03:31:32;;;;;;;10.70;5.10;;;3.60;98.10;;;;;;5020604;28;20390;-40
2022/03/09 03:33:58;;;;;;;12.35;5.18;;;3.50;98.20;;;;;;5028498;28;20026;-40
2022/03/09 03:36:23;;;;;;;10.25;5.35;;;3.50;98.10;;;;;;5024545;28;20030;-40
2022/03/09 03:38:49;;;;;;;9.15;4.80;;;3.50;98.30;;;;;;5016939;28;20095;-40
2022/03/09 03:41:15;;;;;;;8.05;5.05;;;3.40;98.70;;;;;;5014819;28;20034;-38
2022/03/09 03:43:40;;;;;;;13.73;5.53;;;3.30;98.70;;;;;;5019281;28;20026;-40
2022/03/09 03:46:06;;;;;;;9.30;4.72;;;3.30;98.60;;;;;;5029319;28;20041;-60
2022/03/09 03:48:31;;;;;;;10.95;5.30;;;3.30;98.50;;;;;;5015694;28;20038;-40
2022/03/09 03:50:57;;;;;;;11.98;4.35;;;3.30;98.80;;;;;;5014364;28;20061;-39
2022/03/09 03:53:23;;;;;;;8.57;4.53;;;3.30;98.70;;;;;;5017333;28;20049;-39
2022/03/09 03:55:48;;;;;;;11.80;4.97;;;3.30;98.50;;;;;;5033860;28;20385;-40
2022/03/09 03:58:14;;;;;;;7.72;4.57;;;3.40;98.50;;;;;;5033418;28;20017;-39
2022/03/09 04:00:39;;;;;;;13.55;4.68;;;3.40;98.40;;;;;;5030417;28;20038;-38
2022/03/09 04:03:05;;;;;;;10.60;5.15;;;3.40;98.20;;;;;;5030862;28;20025;-39
2022/03/09 04:05:30;;;;;;;13.10;5.30;;;3.40;98.50;;;;;;5017897;28;20025;-38
2022/03/09 04:07:56;;;;;;;9.70;4.43;;;3.30;98.40;;;;;;5027964;28;20113;-40
2022/03/09 04:10:22;;;;;;;11.30;5.47;;;3.30;98.60;;;;;;5023124;28;20489;-39
2022/03/09 04:12:48;;;;;;;9.32;4.45;;;3.30;98.40;;;;;;5047946;28;20326;-40
2022/03/09 04:15:13;;;;;;;8.07;4.50;;;3.40;98.50;;;;;;5017399;28;20026;-39
2022/03/09 04:17:43;;;;;;;12.15;4.93;;;3.40;98.40;;;;;;5018538;28;20046;-39
2022/03/09 04:20:10;;;;;;;14.45;5.72;;;3.40;98.40;;;;;;5033569;28;20033;-39
2022/03/09 04:22:35;;;;;;;15.27;5.15;;;3.40;98.40;;;;;;5031569;28;20435;-38
2022/03/09 04:25:02;;;;;;;16.35;5.10;;;3.30;98.30;;;;;;5031500;28;20068;-38
2022/03/09 04:27:28;;;;;;;9.23;4.82;;;3.40;98.30;;;;;;5018446;28;20528;-46
2022/03/09 04:29:53;;;;;;;10.82;5.70;;;3.40;98.40;;;;;;5014605;28;20026;-40
2022/03/09 04:32:19;;;;;;;10.40;5.20;;;3.30;98.70;;;;;;5027801;28;20021;-40
2022/03/09 04:34:44;;;;;;;12.30;5.22;;;3.30;98.80;;;;;;5027896;28;20021;-39
2022/03/09 04:37:10;;;;;;;7.55;4.57;;;3.20;98.70;;;;;;5014670;28;20509;-39
2022/03/09 04:39:35;;;;;;;11.65;5.53;;;3.20;98.90;;;;;;5017839;28;20402;-39
2022/03/09 04:42:01;;;;;;;10.50;4.90;;;3.20;98.70;;;;;;5031271;28;20053;-39
2022/03/09 04:44:27;;;;;;;11.30;5.25;;;3.30;98.90;;;;;;5031460;28;20033;-36
2022/03/09 04:46:52;;;;;;;13.00;5.55;;;3.20;99.00;;;;;;5021423;28;20036;-42
2022/03/09 04:49:18;;;;;;;15.30;6.05;;;3.10;99.00;;;;;;5028722;28;20029;-39
2022/03/09 04:51:44;;;;;;;11.45;4.72;;;3.10;99.20;;;;;;5032671;28;20014;-39
2022/03/09 04:54:09;;;;;;;9.75;5.70;;;3.00;99.20;;;;;;5024583;28;20088;-38
2022/03/09 04:56:35;;;;;;;17.77;5.40;;;3.00;99.10;;;;;;5028396;28;20032;-39
2022/03/09 04:59:01;;;;;;;9.10;4.90;;;3.00;99.00;;;;;;5024139;28;20474;-40
2022/03/09 05:01:27;;;;;;;8.88;4.72;;;3.00;99.10;;;;;;5030646;28;20018;-39
2022/03/09 05:03:52;;;;;;;23.75;7.05;;;3.00;99.00;;;;;;5031902;28;20021;-39
2022/03/09 05:06:18;;;;;;;12.38;5.15;;;3.00;99.20;;;;;;5032888;28;20025;-39
2022/03/09 05:08:43;;;;;;;9.82;5.80;;;3.00;99.20;;;;;;5022500;28;20434;-38
2022/03/09 05:11:09;;;;;;;9.50;5.28;;;3.00;99.20;;;;;;5019950;28;20035;-38
2022/03/09 05:13:35;;;;;;;10.20;5.43;;;3.10;99.00;;;;;;5032222;28;20038;-40
2022/03/09 05:16:00;;;;;;;10.43;5.35;;;3.10;98.90;;;;;;5030783;28;20018;-36
2022/03/09 05:18:26;;;;;;;11.85;5.82;;;3.10;99.10;;;;;;5023784;28;20100;-39
2022/03/09 05:20:51;;;;;;;20.25;6.05;;;3.00;99.00;;;;;;5023669;28;20513;-40
2022/03/09 05:23:17;;;;;;;13.90;4.63;;;3.00;99.20;;;;;;5028266;28;20037;-38
2022/03/09 05:25:43;;;;;;;12.20;6.05;;;3.00;99.30;;;;;;5020028;28;20053;-39
2022/03/09 05:28:08;;;;;;;14.90;5.43;;;2.90;99.30;;;;;;5029534;28;20037;-39
2022/03/09 05:30:34;;;;;;;9.75;5.38;;;2.80;99.40;;;;;;5017844;28;20037;-40
2022/03/09 05:32:59;;;;;;;13.48;5.63;;;2.80;99.60;;;;;;5024890;28;20029;-40
2022/03/09 05:35:25;;;;;;;13.95;6.13;;;2.70;99.80;;;;;;5028096;28;20021;-39
2022/03/09 05:37:51;;;;;;;13.50;5.78;;;2.70;99.90;;;;;;5019020;28;20028;-38
2022/03/09 05:40:16;;;;;;;7.72;4.93;;;2.60;99.90;;;;;;5013303;28;20611;-41
2022/03/09 05:42:43;;;;;;;10.45;5.70;;;2.80;99.70;;;;;;5023831;28;20552;-38
2022/03/09 05:45:09;;;;;;;11.05;4.90;;;2.80;99.60;;;;;;5032450;28;20032;-39
2022/03/09 05:47:35;;;;;;;16.67;6.50;;;2.80;99.70;;;;;;5032367;28;20103;-39
2022/03/09 05:50:00;;;;;;;18.08;5.95;;;2.80;99.60;;;;;;5031975;28;20033;-39
2022/03/09 05:52:26;;;;;;;17.40;6.30;;;2.80;99.80;;;;;;5027697;28;20029;-38
2022/03/09 05:54:52;;;;;;;14.15;6.10;;;2.70;99.90;;;;;;5030825;28;20025;-41
2022/03/09 05:57:19;;;;;;;14.63;6.82;;;2.60;99.90;;;;;;5032449;28;20390;-45
2022/03/09 05:59:45;;;;;;;13.13;6.57;;;2.60;99.90;;;;;;5025553;28;20030;-40
2022/03/09 06:02:11;;;;;;;17.77;8.05;;;2.60;99.90;;;;;;5016347;28;20033;-39
2022/03/09 06:04:36;;;;;;;19.88;8.40;;;2.70;99.60;;;;;;5022648;28;20489;-39
2022/03/09 06:07:02;;;;;;;16.60;7.25;;;2.60;99.80;;;;;;5018230;28;20026;-40
2022/03/09 06:09:28;;;;;;;17.80;7.60;;;2.70;99.90;;;;;;5022248;28;20026;-40
2022/03/09 06:11:55;;;;;;;21.70;7.38;;;2.70;99.70;;;;;;5016375;28;20026;-40
2022/03/09 06:14:20;;;;;;;14.05;6.05;;;2.70;99.90;;;;;;5023141;28;20046;-40
2022/03/09 06:16:47;;;;;;;12.18;5.90;;;2.60;99.90;;;;;;5017299;28;20474;-40
2022/03/09 06:19:14;;;;;;;13.02;5.80;;;2.60;99.90;;;;;;5030673;28;20056;-46
2022/03/09 06:21:39;;;;;;;14.00;5.65;;;2.60;99.90;;;;;;5035919;28;20029;-39
2022/03/09 06:24:05;;;;;;;18.45;6.07;;;2.70;99.90;;;;;;5034819;28;20033;-40
2022/03/09 06:26:31;;;;;;;11.02;5.40;;;2.80;99.70;;;;;;5022268;28;20022;-38
2022/03/09 06:28:57;;;;;;;11.82;6.05;;;2.80;99.90;;;;;;5017438;28;20052;-38
2022/03/09 06:31:22;;;;;;;9.70;4.80;;;2.80;99.80;;;;;;5017308;28;20034;-38
2022/03/09 06:33:48;;;;;;;11.73;5.30;;;2.80;99.70;;;;;;5030179;28;20026;-40
2022/03/09 06:36:15;;;;;;;8.85;4.47;;;2.90;99.80;;;;;;5025535;28;20029;-39
2022/03/09 06:38:40;;;;;;;10.35;5.72;;;3.00;99.50;;;;;;5020198;28;20017;-38
2022/03/09 06:41:06;;;;;;;9.65;4.80;;;3.00;99.40;;;;;;5031803;28;20551;-38
2022/03/09 06:43:31;;;;;;;19.42;5.90;;;3.00;99.60;;;;;;5031508;28;20057;-39
2022/03/09 06:45:57;;;;;;;9.25;4.50;;;3.10;99.30;;;;;;5028144;28;20125;-39
2022/03/09 06:48:23;;;;;;;14.30;5.70;;;3.20;99.40;;;;;;5033330;28;20053;-40
2022/03/09 06:50:48;;;;;;;12.80;5.88;;;3.20;99.10;;;;;;5018205;28;20041;-40
2022/03/09 06:53:14;;;;;;;14.75;6.45;;;3.30;98.90;;;;;;5032556;28;20120;-36
2022/03/09 06:55:39;;;;;;;10.20;4.68;;;3.30;98.90;;;;;;5029381;28;20026;-38
2022/03/09 06:58:05;;;;;;;16.70;5.68;;;3.30;98.70;;;;;;5018519;28;20052;-38
2022/03/09 07:00:31;;;;;;;12.60;5.03;;;3.40;98.90;;;;;;5016310;28;20033;-39
2022/03/09 07:02:57;;;;;;;11.75;5.35;;;3.40;98.80;;;;;;5028138;28;20025;-38
2022/03/09 07:05:23;;;;;;;21.08;6.28;;;3.40;98.80;;;;;;5034934;28;20514;-39
2022/03/09 07:07:49;;;;;;;11.85;5.57;;;3.50;98.50;;;;;;5032233;28;20061;-39
2022/03/09 07:10:14;;;;;;;9.77;4.85;;;3.60;98.40;;;;;;5033901;28;20108;-39
2022/03/09 07:12:42;;;;;;;13.23;6.50;;;3.70;98.60;;;;;;5032548;28;20501;-39
2022/03/09 07:15:08;;;;;;;10.43;5.93;;;3.70;98.20;;;;;;5031639;28;20026;-39
2022/03/09 07:17:34;;;;;;;11.15;5.95;;;3.80;98.00;;;;;;5028615;28;20069;-43
2022/03/09 07:19:59;;;;;;;15.57;6.18;;;3.90;98.30;;;;;;5014126;28;20069;-39
2022/03/09 07:22:25;;;;;;;15.45;6.68;;;3.90;97.90;;;;;;5014217;28;20398;-39
2022/03/09 07:24:51;;;;;;;17.05;7.47;;;4.00;97.70;;;;;;5015062;28;20033;-37
2022/03/09 07:27:16;;;;;;;12.55;6.47;;;4.00;98.20;;;;;;5022251;28;20044;-38
2022/03/09 07:29:42;;;;;;;13.32;6.00;;;4.10;97.80;;;;;;5030085;28;20026;-40
2022/03/09 07:32:08;;;;;;;15.05;6.10;;;4.10;97.80;;;;;;5028434;28;20535;-41
2022/03/09 07:34:34;;;;;;;12.90;5.95;;;4.20;98.00;;;;;;5030994;28;20026;-40
2022/03/09 07:37:00;;;;;;;17.23;6.55;;;4.20;98.10;;;;;;5021319;28;20033;-40
2022/03/09 07:39:27;;;;;;;9.73;5.38;;;4.30;97.80;;;;;;5033968;28;20029;-39
2022/03/09 07:41:55;;;;;;;14.45;5.50;;;4.30;97.80;;;;;;5026438;28;20104;-38
2022/03/09 07:44:21;;;;;;;12.45;6.45;;;4.40;97.50;;;;;;5016843;28;20426;-40
2022/03/09 07:46:47;;;;;;;14.43;5.95;;;4.50;97.60;;;;;;5017731;28;20025;-40
2022/03/09 07:49:13;;;;;;;10.35;5.35;;;4.50;97.60;;;;;;5025328;28;20056;-39
2022/03/09 07:51:38;;;;;;;11.93;6.05;;;4.60;97.40;;;;;;5026690;28;20049;-40
2022/03/09 07:54:04;;;;;;;13.90;5.65;;;4.70;97.50;;;;;;5026167;28;20022;-39
2022/03/09 07:56:30;;;;;;;22.65;6.40;;;4.70;97.20;;;;;;5032150;28;20489;-40
2022/03/09 07:58:55;;;;;;;15.02;5.40;;;4.80;96.90;;;;;;5022941;28;20367;-39
2022/03/09 08:01:21;;;;;;;15.27;6.05;;;4.90;96.90;;;;;;5015112;28;20032;-40
2022/03/09 08:03:46;;;;;;;14.07;6.40;;;4.90;97.10;;;;;;5025916;28;20061;-39
2022/03/09 08:06:12;;;;;;;11.32;5.40;;;5.00;97.10;;;;;;5019351;28;20112;-39
2022/03/09 08:08:38;;;;;;;21.20;6.45;;;5.10;97.20;;;;;;5033372;28;20022;-38
2022/03/09 08:11:04;;;;;;;12.65;6.28;;;5.20;96.90;;;;;;5020811;28;20481;-40
2022/03/09 08:13:29;;;;;;;16.13;6.20;;;5.20;97.30;;;;;;5022172;28;20398;-42
2022/03/09 08:15:55;;;;;;;12.68;5.88;;;5.30;96.90;;;;;;5025103;28;20163;-34
2022/03/09 08:18:21;;;;;;;15.23;6.40;;;5.30;96.90;;;;;;5025293;28;20029;-39
2022/03/09 08:20:46;;;;;;;10.18;5.90;;;5.40;96.80;;;;;;5023497;28;20045;-40
2022/03/09 08:23:12;;;;;;;12.98;6.05;;;5.50;96.80;;;;;;5023604;28;20029;-38
2022/03/09 08:25:38;;;;;;;12.80;5.95;;;5.60;97.00;;;;;;5030402;28;20119;-38
2022/03/09 08:28:03;;;;;;;11.90;6.07;;;5.60;97.10;;;;;;5022501;28;20021;-39
2022/03/09 08:30:29;;;;;;;17.95;6.45;;;5.80;96.70;;;;;;5032985;28;20026;-39
2022/03/09 08:32:55;;;;;;;17.50;6.28;;;5.90;96.50;;;;;;5016983;28;20022;-39
2022/03/09 08:35:20;;;;;;;13.32;5.88;;;5.90;96.70;;;;;;5013604;28;20030;-41
2022/03/09 08:37:46;;;;;;;15.27;5.53;;;6.00;96.80;;;;;;5028917;28;20025;-40
2022/03/09 08:40:12;;;;;;;13.52;5.75;;;6.00;97.00;;;;;;5020915;28;20034;-40
2022/03/09 08:42:38;;;;;;;9.73;5.88;;;6.20;97.00;;;;;;5030014;28;20025;-40
2022/03/09 08:45:05;;;;;;;10.05;5.85;;;6.30;96.60;;;;;;5032150;28;20100;-37
2022/03/09 08:47:31;;;;;;;11.85;5.85;;;6.40;96.30;;;;;;5031922;28;20033;-40
2022/03/09 08:49:57;;;;;;;17.77;5.90;;;6.40;96.20;;;;;;5032606;28;20029;-40
2022/03/09 08:52:23;;;;;;;16.67;6.30;;;6.50;96.60;;;;;;5015144;28;20029;-39
2022/03/09 08:54:53;;;;;;;11.95;6.10;;;6.60;96.40;;;;;;5019739;28;20030;-49
2022/03/09 08:57:20;;;;;;;12.30;5.55;;;6.80;96.20;;;;;;5029188;28;20026;-40
2022/03/09 08:59:46;;;;;;;13.30;6.72;;;6.90;96.10;;;;;;5017595;28;20514;-40
2022/03/09 09:02:12;;;;;;;12.65;7.13;;;7.00;96.10;;;;;;5017785;28;20024;-39
2022/03/09 09:04:38;;;;;;;20.45;6.57;;;7.00;96.00;;;;;;5030697;28;20059;-39
2022/03/09 09:07:04;;;;;;;19.25;5.97;;;7.10;95.60;;;;;;5032816;28;20029;-39
2022/03/09 09:09:29;;;;;;;19.23;6.43;;;7.20;95.50;;;;;;5018467;28;20037;-41
2022/03/09 09:11:55;;;;;;;14.32;6.78;;;7.30;96.30;;;;;;5024950;28;20022;-41
2022/03/09 09:14:21;;;;;;;13.10;6.60;;;7.40;95.80;;;;;;5026251;28;20104;-41
2022/03/09 09:16:47;;;;;;;10.32;6.22;;;7.60;95.50;;;;;;5023085;28;20026;-38
2022/03/09 09:19:13;;;;;;;14.73;7.00;;;7.70;95.30;;;;;;5022605;28;20420;-40
2022/03/09 09:21:39;;;;;;;11.82;5.93;;;7.80;95.60;;;;;;5023356;28;20100;-40
2022/03/09 09:24:05;;;;;;;20.02;6.68;;;7.90;95.60;;;;;;5022998;28;20505;-40
2022/03/09 09:26:31;;;;;;;13.05;6.90;;;8.10;95.20;;;;;;5027538;28;20021;-40
2022/03/09 09:28:56;;;;;;;11.35;5.63;;;8.20;95.10;;;;;;5014492;28;20026;-42
2022/03/09 09:31:22;;;;;;;13.85;5.70;;;8.30;95.30;;;;;;5017263;28;20509;-39
2022/03/09 09:33:48;;;;;;;17.52;7.55;;;8.30;95.60;;;;;;5027454;28;20457;-37
2022/03/09 09:36:13;;;;;;;15.40;6.55;;;8.50;95.30;;;;;;5020835;28;20024;-39
2022/03/09 09:38:39;;;;;;;14.45;6.15;;;8.60;95.30;;;;;;5019960;28;20032;-39
2022/03/09 09:41:08;;;;;;;13.40;6.32;;;8.70;94.80;;;;;;5031827;28;20041;-39
2022/03/09 09:43:34;;;;;;;14.98;6.38;;;8.80;94.70;;;;;;5032117;28;20064;-37
2022/03/09 09:46:00;;;;;;;13.18;5.95;;;8.80;94.80;;;;;;5035783;28;20029;-39
2022/03/09 09:48:25;;;;;;;17.83;6.22;;;8.80;94.70;;;;;;5029378;28;20029;-42
2022/03/09 09:50:52;;;;;;;12.00;6.43;;;8.70;94.40;;;;;;5035271;28;20059;-37
2022/03/09 09:53:18;;;;;;;19.02;6.90;;;8.60;94.60;;;;;;5035131;28;20466;-41
2022/03/09 09:55:44;;;;;;;11.48;5.85;;;8.50;94.80;;;;;;5036376;28;20577;-39
2022/03/09 09:58:10;;;;;;;11.32;6.18;;;8.50;94.90;;;;;;5036251;28;20100;-40
2022/03/09 10:00:36;;;;;;;14.93;6.35;;;8.60;95.20;;;;;;5036006;28;20033;-38
2022/03/09 10:03:03;;;;;;;19.42;6.88;;;8.70;95.40;;;;;;5036503;28;20022;-38
2022/03/09 10:05:29;;;;;;;18.93;7.00;;;8.80;94.50;;;;;;5036023;28;20017;-38
2022/03/09 10:08:04;;;;;;;11.95;6.70;;;8.90;94.90;;;;;;5036096;28;20026;-39
2022/03/09 10:10:40;;;;;;;17.75;7.85;;;9.00;95.00;;;;;;5035904;28;20116;-39
2022/03/09 10:13:29;;;;;;;16.48;7.15;;;9.20;94.70;;;;;;5035874;28;20434;-40
2022/03/09 10:16:20;;;;;;;18.08;6.45;;;9.30;94.40;;;;;;5035488;28;20394;-40
2022/03/09 10:18:54;;;;;;;16.30;6.15;;;9.40;94.30;;;;;;5035834;28;20382;-38
2022/03/09 10:21:23;;;;;;;16.25;6.97;;;9.50;94.80;;;;;;5035900;28;20029;-40
2022/03/09 10:24:08;;;;;;;18.90;7.38;;;9.60;94.90;;;;;;5036021;28;20072;-40
2022/03/09 10:26:38;;;;;;;19.42;7.25;;;9.70;94.70;;;;;;5035910;28;20025;-37
2022/03/09 10:29:07;;;;;;;12.52;6.55;;;9.90;94.30;;;;;;5035936;28;20059;-40
2022/03/09 10:31:38;;;;;;;13.35;7.20;;;10.00;94.30;;;;;;5035768;28;20517;-40
2022/03/09 10:34:12;;;;;;;16.48;7.40;;;10.10;94.00;;;;;;5035676;28;20017;-40
2022/03/09 10:36:57;;;;;;;18.10;8.18;;;10.20;94.30;;;;;;5035592;28;20386;-41
2022/03/09 10:39:27;;;;;;;21.63;7.72;;;10.30;94.50;;;;;;5035522;28;20030;-43
2022/03/09 10:41:53;;;;;;;16.35;7.32;;;10.50;94.10;;;;;;5035384;28;20540;-41
2022/03/09 10:44:19;;;;;;;22.25;8.63;;;10.70;93.90;;;;;;5035475;28;20017;-41
2022/03/09 10:46:50;;;;;;;12.45;6.75;;;10.70;94.10;;;;;;5035435;28;20458;-41
2022/03/09 10:49:19;;;;;;;18.63;7.32;;;10.90;93.90;;;;;;5033956;28;20035;-41
2022/03/09 10:51:51;;;;;;;14.63;7.35;;;11.00;93.80;;;;;;5035211;28;20033;-43
2022/03/09 10:54:25;;;;;;;15.68;8.55;;;11.10;93.30;;;;;;5035265;28;20026;-41
2022/03/09 10:57:07;;;;;;;20.00;9.55;;;11.20;93.30;;;;;;5034132;28;20030;-42
2022/03/09 10:59:48;;;;;;;17.10;7.32;;;11.30;93.30;;;;;;5034256;28;20030;-41
2022/03/09 11:02:16;;;;;;;14.32;7.47;;;11.40;93.00;;;;;;5035167;28;20482;-48
2022/03/09 11:04:42;;;;;;;;;;;11.60;92.60;;;;;;5035820;28;20513;-40
2022/03/09 11:07:10;;;;;;;22.95;8.77;;;11.60;92.40;;;;;;5034962;28;19909;-41
2022/03/09 11:09:37;;;;;;;15.48;7.95;;;11.50;92.90;;;;;;5034805;28;20022;-41
2022/03/09 11:12:03;;;;;;;34.40;7.90;;;11.50;93.40;;;;;;5034759;28;20025;-41
2022/03/09 11:14:29;;;;;;;23.75;9.30;;;11.70;93.20;;;;;;5035133;28;20501;-42
2022/03/09 11:17:00;;;;;;;16.05;8.25;;;11.70;92.60;;;;;;5034874;28;20021;-41
2022/03/09 11:19:26;;;;;;;16.33;8.02;;;11.60;93.40;;;;;;5035143;28;20072;-42
2022/03/09 11:21:52;;;;;;;17.20;8.60;;;11.70;93.10;;;;;;5035113;28;20028;-42
2022/03/09 11:24:19;;;;;;;19.05;8.10;;;11.80;93.20;;;;;;5034646;28;20022;-58
2022/03/09 11:26:51;;;;;;;20.85;9.77;;;12.00;93.20;;;;;;5019218;28;20505;-41
2022/03/09 11:29:28;;;;;;;16.27;8.55;;;12.10;93.00;;;;;;5014807;28;20041;-39
2022/03/09 11:31:54;;;;;;;22.67;9.23;;;12.30;92.40;;;;;;5014783;28;20048;-41
2022/03/09 11:34:45;;;;;;;16.35;7.68;;;12.30;92.40;;;;;;5014723;28;20336;-41
2022/03/09 11:37:11;;;;;;;19.33;9.90;;;12.40;92.50;;;;;;5014637;28;20026;-59
2022/03/09 11:39:42;;;;;;;20.48;9.05;;;12.50;92.50;;;;;;5014643;28;20519;-42
2022/03/09 11:42:19;;;;;;;23.92;9.93;;;12.70;92.50;;;;;;5014618;28;20022;-41
2022/03/09 11:44:46;;;;;;;20.17;10.15;;;12.80;92.40;;;;;;5014487;28;20478;-41
2022/03/09 11:47:12;;;;;;;20.20;9.93;;;13.00;91.90;;;;;;5014533;28;20026;-41
2022/03/09 11:49:49;;;;;;;25.30;10.15;;;13.10;91.20;;;;;;5013241;28;20022;-40
2022/03/09 11:52:21;;;;;;;17.00;7.75;;;13.10;91.30;;;;;;5014604;28;20026;-43
2022/03/09 11:54:53;;;;;;;25.27;9.18;;;13.10;91.90;;;;;;5014413;28;20141;-41
2022/03/09 11:57:22;;;;;;;24.50;9.90;;;13.20;92.10;;;;;;5014585;28;20018;-41
2022/03/09 12:00:09;;;;;;;19.30;10.23;;;13.30;91.90;;;;;;5014425;28;20029;-45
2022/03/09 12:02:42;;;;;;;25.38;9.88;;;13.40;91.60;;;;;;5013984;28;20049;-41
2022/03/09 12:05:31;;;;;;;22.25;9.27;;;13.40;91.20;;;;;;5014457;28;20095;-39
2022/03/09 12:08:11;;;;;;;26.55;10.32;;;13.40;90.90;;;;;;5013770;28;20022;-43
2022/03/09 12:10:51;;;;;;;25.85;10.27;;;13.20;91.00;;;;;;5012688;28;20026;-40
2022/03/09 12:13:41;;;;;;;30.63;10.57;;;13.20;91.20;;;;;;5013798;28;20104;-61
2022/03/09 12:16:14;;;;;;;19.38;10.00;;;13.20;91.70;;;;;;5008371;28;20481;-42
2022/03/09 12:18:41;;;;;;;18.73;9.43;;;13.50;91.20;;;;;;5013891;28;20490;-43
2022/03/09 12:21:09;;;;;;;26.05;10.85;;;13.70;90.60;;;;;;5014142;28;20045;-43
2022/03/09 12:23:55;;;;;;;19.50;9.85;;;13.80;90.00;;;;;;5013753;28;20030;-50
2022/03/09 12:27:08;;;;;;;24.00;10.23;;;13.90;90.70;;;;;;5013449;28;20037;-41
2022/03/09 12:29:35;;;;;;;22.55;11.02;;;14.10;90.40;;;;;;5004678;28;20053;-42
2022/03/09 12:32:05;;;;;;;24.38;9.20;;;14.30;88.50;;;;;;5013775;28;20033;-42
2022/03/09 12:34:35;;;;;;;20.67;9.18;;;14.20;90.00;;;;;;5013556;28;20053;-40
2022/03/09 12:37:02;;;;;;;26.40;10.32;;;14.30;90.20;;;;;;5012394;28;20363;-42
2022/03/09 12:39:28;;;;;;;26.17;9.68;;;14.50;90.40;;;;;;5013477;28;20025;-41
2022/03/09 12:41:56;;;;;;;21.50;10.90;;;14.60;88.00;;;;;;5013530;28;20113;-42
2022/03/09 12:44:22;;;;;;;24.33;9.60;;;14.60;88.20;;;;;;5013357;28;20076;-43
2022/03/09 12:46:51;;;;;;;22.25;10.10;;;14.60;89.20;;;;;;5013716;28;20509;-43
2022/03/09 12:49:29;;;;;;;22.13;10.63;;;14.70;88.80;;;;;;5013674;28;20030;-41
2022/03/09 12:51:59;;;;;;;20.50;9.55;;;14.90;88.40;;;;;;5013285;28;20387;-41